Terminal Aerodrome Forecast
Issued by NWS Melbourne, FL

Home | Current Version | Previous Version | Text Only | Print | Product List | Glossary On
Versions: 1 2 3 4 5 6 7 8 9 10 11 12 13 14 15 16 17
000
FTUS42 KMLB 171100
TAFDAB
TAF
KDAB 171137Z 1712/1812 02007KT P6SM SCT050
     FM171400 04011KT P6SM BKN050
     FM171600 06015G25KT P6SM VCSH BKN035 BKN050
     FM172200 06013KT P6SM -SHRA BKN025 OVC030
     FM180200 04008KT P6SM -SHRA SCT008 BKN015 OVC020=

USA.gov is the U.S. government's official web portal to all federal, state and local government web resources and services.